createdAt,value
2023-01-11T00:02:48.228Z,3.73
2023-01-11T00:07:50.592Z,3.74
2023-01-11T00:13:01.299Z,3.70
2023-01-11T00:18:03.131Z,3.66
2023-01-11T00:23:04.903Z,3.62
2023-01-11T00:28:07.360Z,3.58
2023-01-11T00:33:10.924Z,3.53
2023-01-11T00:38:32.912Z,3.50
2023-01-11T00:43:53.185Z,3.51
2023-01-11T00:49:04.083Z,3.57
2023-01-11T00:54:05.829Z,3.65
2023-01-11T00:59:08.156Z,3.70
2023-01-11T01:04:10.949Z,3.68
2023-01-11T01:09:12.936Z,3.60
2023-01-11T01:14:30.863Z,3.56
2023-01-11T01:19:34.636Z,3.56
2023-01-11T01:24:36.739Z,3.65
2023-01-11T01:29:38.423Z,3.80
2023-01-11T01:34:40.348Z,3.84
2023-01-11T01:39:42.318Z,3.82
2023-01-11T01:45:12.750Z,3.86
2023-01-11T01:50:17.100Z,3.92
2023-01-11T01:55:35.056Z,3.92
2023-01-11T02:00:42.407Z,3.87
2023-01-11T02:05:44.959Z,3.76
2023-01-11T02:10:47.111Z,3.75
2023-01-11T02:16:07.871Z,3.78
2023-01-11T02:21:40.791Z,3.87
2023-01-11T02:26:51.707Z,3.87
2023-01-11T02:32:06.253Z,3.81
2023-01-11T02:37:28.683Z,3.76
2023-01-11T02:43:11.240Z,3.75
2023-01-11T02:48:30.664Z,3.72
2023-01-11T02:53:43.549Z,3.60
2023-01-11T02:58:48.181Z,3.47
2023-01-11T03:03:50.817Z,3.38
2023-01-11T03:09:19.121Z,3.45
2023-01-11T03:14:27.303Z,3.60
2023-01-11T03:19:46.638Z,3.58
2023-01-11T03:25:13.865Z,3.49
2023-01-11T03:30:21.421Z,3.35
2023-01-11T03:35:29.009Z,3.25
2023-01-11T03:40:36.273Z,3.15
2023-01-11T03:45:55.980Z,2.99
2023-01-11T03:51:01.734Z,2.78
2023-01-11T03:56:09.366Z,2.63
2023-01-11T04:01:12.539Z,2.59
2023-01-11T04:06:14.430Z,2.65
2023-01-11T04:11:16.154Z,2.71
2023-01-11T04:16:17.917Z,2.76
2023-01-11T04:21:19.767Z,2.76
2023-01-11T04:26:21.660Z,2.85
2023-01-11T04:31:23.515Z,3.05
2023-01-11T04:36:26.449Z,3.15
2023-01-11T04:41:46.725Z,3.16
2023-01-11T04:46:48.534Z,3.20
2023-01-11T04:51:50.229Z,3.25
2023-01-11T04:56:52.083Z,3.24
2023-01-11T05:01:54.020Z,3.21
2023-01-11T05:06:55.803Z,3.16
2023-01-11T05:11:57.459Z,3.18
2023-01-11T05:16:59.256Z,3.15
2023-01-11T05:22:00.955Z,3.14
2023-01-11T05:27:03.586Z,3.12
2023-01-11T05:32:05.815Z,3.08
2023-01-11T05:37:07.567Z,3.05
2023-01-11T05:42:09.344Z,3.01
2023-01-11T05:47:11.250Z,3.03
2023-01-11T05:52:13.133Z,3.00
2023-01-11T05:57:15.132Z,2.93
2023-01-11T06:02:16.972Z,2.95
2023-01-11T06:07:18.782Z,3.03
2023-01-11T06:12:20.605Z,3.04
2023-01-11T06:17:22.333Z,2.92
2023-01-11T06:22:24.042Z,2.76
2023-01-11T06:27:25.843Z,2.65
2023-01-11T06:32:29.784Z,2.64
2023-01-11T06:37:31.893Z,2.73
2023-01-11T06:42:33.560Z,2.76
2023-01-11T06:47:35.292Z,2.61
2023-01-11T06:52:36.939Z,2.73
2023-01-11T06:57:38.601Z,2.72
2023-01-11T07:02:40.313Z,2.66
2023-01-11T07:07:43.649Z,2.54
2023-01-11T07:12:45.619Z,2.45
2023-01-11T07:17:49.309Z,2.45
2023-01-11T07:22:51.568Z,2.56
2023-01-11T07:27:57.259Z,2.70
2023-01-11T07:32:59.653Z,2.81
2023-01-11T07:38:02.897Z,2.94
2023-01-11T07:43:18.820Z,3.10
2023-01-11T07:48:26.057Z,3.32
2023-01-11T07:53:27.732Z,3.48
2023-01-11T07:58:29.415Z,3.56
2023-01-11T08:03:31.400Z,3.64
2023-01-11T08:08:33.195Z,3.76
2023-01-11T08:13:53.740Z,3.90
2023-01-11T08:18:55.421Z,3.97
2023-01-11T08:23:58.796Z,4.06
2023-01-11T08:29:00.484Z,4.21
2023-01-11T08:34:02.171Z,4.30
2023-01-11T08:39:04.138Z,4.31
2023-01-11T08:44:08.735Z,4.31
2023-01-11T08:49:12.373Z,4.41
2023-01-11T08:54:14.553Z,4.47
2023-01-11T08:59:16.248Z,4.49
2023-01-11T09:04:24.804Z,4.45
2023-01-11T09:09:27.157Z,4.37
2023-01-11T09:14:29.307Z,4.30
2023-01-11T09:19:33.418Z,4.35
2023-01-11T09:24:35.178Z,4.46
2023-01-11T09:29:37.816Z,4.43
2023-01-11T09:34:41.219Z,4.35
2023-01-11T09:39:43.236Z,4.31
2023-01-11T09:44:56.722Z,4.31
2023-01-11T09:50:02.033Z,4.33
2023-01-11T09:55:05.427Z,4.33
2023-01-11T10:00:42.589Z,4.29
2023-01-11T10:06:02.766Z,4.33
2023-01-11T10:18:41.441Z,4.53
2023-01-11T10:22:33.730Z,4.60
2023-01-11T10:27:39.730Z,4.62
2023-01-11T10:32:54.312Z,4.68
2023-01-11T10:38:22.970Z,4.81
2023-01-11T10:43:28.933Z,4.93
2023-01-11T10:48:34.609Z,5.01
2023-01-11T10:53:49.972Z,5.05
2023-01-11T10:59:22.656Z,5.10
2023-01-11T11:05:00.599Z,5.12
2023-01-11T11:10:02.234Z,5.18
2023-01-11T11:15:21.710Z,5.28
2023-01-11T11:20:34.357Z,5.39
2023-01-11T11:25:43.328Z,5.44
2023-01-11T11:30:48.270Z,5.44
2023-01-11T11:36:04.966Z,5.40
2023-01-11T11:41:12.433Z,5.45
2023-01-11T11:46:18.817Z,5.51
2023-01-11T11:51:23.222Z,5.55
2023-01-11T11:56:28.925Z,5.58
2023-01-11T12:01:35.515Z,5.62
2023-01-11T12:06:38.089Z,5.67
2023-01-11T12:11:42.150Z,5.77
2023-01-11T12:16:45.798Z,5.86
2023-01-11T12:21:47.624Z,5.92
2023-01-11T12:27:04.543Z,5.93
2023-01-11T12:32:20.834Z,5.90
2023-01-11T12:37:47.295Z,5.90
2023-01-11T12:43:08.764Z,5.90
2023-01-11T12:48:38.558Z,5.89
2023-01-11T12:53:49.348Z,5.82
2023-01-11T12:59:29.436Z,5.98
2023-01-11T13:04:52.543Z,6.01
2023-01-11T13:10:06.050Z,5.99
2023-01-11T13:15:34.642Z,5.87
2023-01-11T13:21:00.056Z,5.78
2023-01-11T13:26:19.727Z,5.71
2023-01-11T13:31:22.735Z,5.64
2023-01-11T13:36:30.704Z,5.59
2023-01-11T13:41:39.711Z,5.59
2023-01-11T13:47:02.506Z,5.60
2023-01-11T13:52:12.786Z,5.59
2023-01-11T13:57:27.223Z,5.51
2023-01-11T14:02:46.570Z,5.40
2023-01-11T14:08:19.511Z,5.29
2023-01-11T14:13:56.023Z,5.16
2023-01-11T14:19:06.063Z,5.02
2023-01-11T14:24:10.153Z,4.94
2023-01-11T14:29:30.599Z,4.89
2023-01-11T14:34:41.904Z,4.83
2023-01-11T14:40:02.066Z,4.73
2023-01-11T14:45:22.429Z,4.60
2023-01-11T14:50:45.779Z,4.42
2023-01-11T14:55:49.073Z,4.23
2023-01-11T15:00:53.554Z,4.16
2023-01-11T15:06:00.340Z,4.09
2023-01-11T15:11:22.777Z,4.02
2023-01-11T15:16:46.283Z,3.92
2023-01-11T15:21:50.337Z,3.81
2023-01-11T15:26:52.775Z,3.70
2023-01-11T15:31:54.875Z,3.60
2023-01-11T15:37:03.537Z,3.57
2023-01-11T15:42:31.839Z,3.59
2023-01-11T15:47:54.486Z,3.63
2023-01-11T15:53:06.866Z,3.62
2023-01-11T15:58:29.783Z,3.54
2023-01-11T16:03:54.151Z,3.47
2023-01-11T16:09:49.940Z,3.39
2023-01-11T16:15:12.892Z,3.37
2023-01-11T16:20:20.531Z,3.40
2023-01-11T16:25:25.303Z,3.42
2023-01-11T16:30:28.458Z,3.41
2023-01-11T16:35:30.170Z,3.33
2023-01-11T16:40:40.189Z,3.23
2023-01-11T16:45:44.659Z,3.20
2023-01-11T16:50:59.391Z,3.24
2023-01-11T16:56:15.778Z,3.30
2023-01-11T17:01:17.510Z,3.30
2023-01-11T17:06:24.551Z,3.25
2023-01-11T17:11:39.476Z,3.17
2023-01-11T17:16:45.236Z,3.13
2023-01-11T17:21:50.858Z,3.14
2023-01-11T17:26:58.806Z,3.20
2023-01-11T17:32:04.524Z,3.27
2023-01-11T17:37:11.152Z,3.29
2023-01-11T17:42:34.069Z,3.28
2023-01-11T17:47:42.766Z,3.26
2023-01-11T17:52:54.468Z,3.24
2023-01-11T17:58:14.121Z,3.23
2023-01-11T18:03:18.662Z,3.32
2023-01-11T18:08:22.579Z,3.45
2023-01-11T18:13:34.836Z,3.60
2023-01-11T18:18:47.150Z,3.69
2023-01-11T18:23:49.002Z,3.73
2023-01-11T18:28:51.318Z,3.73
2023-01-11T18:33:55.687Z,3.71
2023-01-11T18:38:57.606Z,3.77
2023-01-11T18:44:00.609Z,3.84
2023-01-11T18:49:02.301Z,3.91
2023-01-11T18:54:04.076Z,3.94
2023-01-11T18:59:06.356Z,3.97
2023-01-11T19:04:10.248Z,4.02
2023-01-11T19:09:12.163Z,4.06
2023-01-11T19:14:14.179Z,4.13
2023-01-11T19:19:16.255Z,4.25
2023-01-11T19:24:17.871Z,4.39
2023-01-11T19:29:20.396Z,4.53
2023-01-11T19:34:23.505Z,4.63
2023-01-11T19:39:26.102Z,4.71
2023-01-11T19:44:37.246Z,4.75
2023-01-11T19:49:40.101Z,4.79
2023-01-11T19:54:43.370Z,4.87
2023-01-11T19:59:45.062Z,4.95
2023-01-11T20:04:46.965Z,5.00
2023-01-11T20:09:49.131Z,5.03
2023-01-11T20:14:50.862Z,5.00
2023-01-11T20:19:54.849Z,4.97
2023-01-11T20:24:56.940Z,5.00
2023-01-11T20:29:58.672Z,5.04
2023-01-11T20:35:00.335Z,5.08
2023-01-11T20:40:02.105Z,5.10
2023-01-11T20:45:04.564Z,5.09
2023-01-11T20:50:07.371Z,5.15
2023-01-11T20:55:10.385Z,5.23
2023-01-11T21:00:13.838Z,5.32
2023-01-11T21:05:16.382Z,5.36
2023-01-11T21:10:18.564Z,5.38
2023-01-11T21:15:20.490Z,5.38
2023-01-11T21:20:22.432Z,5.38
2023-01-11T21:25:24.242Z,5.36
2023-01-11T21:30:25.879Z,5.37
2023-01-11T21:35:27.684Z,5.42
2023-01-11T21:40:30.120Z,5.46
2023-01-11T21:45:31.760Z,5.45
2023-01-11T21:50:33.510Z,5.46
2023-01-11T21:55:35.345Z,5.43
2023-01-11T22:00:37.036Z,5.42
2023-01-11T22:05:38.857Z,5.42
2023-01-11T22:10:40.583Z,5.42
2023-01-11T22:15:42.252Z,5.35
2023-01-11T22:20:44.007Z,5.25
2023-01-11T22:25:45.716Z,5.15
2023-01-11T22:30:49.053Z,5.03
2023-01-11T22:35:54.906Z,4.90
2023-01-11T22:41:00.308Z,4.78
2023-01-11T22:46:02.646Z,4.70
2023-01-11T22:51:11.617Z,4.66
2023-01-11T22:56:14.911Z,4.67
2023-01-11T23:01:27.768Z,4.65
2023-01-11T23:06:32.424Z,4.63
2023-01-11T23:11:56.587Z,4.64
2023-01-11T23:17:05.715Z,4.65
2023-01-11T23:22:09.007Z,4.63
2023-01-11T23:27:10.705Z,4.61
2023-01-11T23:32:12.455Z,4.63
2023-01-11T23:37:14.147Z,4.63
2023-01-11T23:42:27.985Z,4.58
2023-01-11T23:47:31.453Z,4.56
2023-01-11T23:52:33.118Z,4.59
2023-01-11T23:57:34.867Z,4.59
